createdAt,value
2023-04-15T00:00:31.859Z,0.00
2023-04-15T00:01:31.935Z,0.00
2023-04-15T00:02:31.890Z,0.00
2023-04-15T00:03:32.013Z,0.00
2023-04-15T00:04:31.908Z,0.00
2023-04-15T00:05:31.787Z,0.00
2023-04-15T00:06:31.808Z,0.00
2023-04-15T00:07:31.813Z,0.00
2023-04-15T00:08:31.752Z,0.00
2023-04-15T00:09:31.709Z,0.00
2023-04-15T00:10:31.732Z,0.00
2023-04-15T00:11:31.676Z,0.00
2023-04-15T00:12:31.692Z,0.00
2023-04-15T00:13:31.853Z,0.00
2023-04-15T00:14:31.634Z,0.00
2023-04-15T00:15:31.619Z,0.00
2023-04-15T00:16:31.650Z,0.00
2023-04-15T00:17:31.723Z,0.00
2023-04-15T00:18:31.720Z,0.00
2023-04-15T00:19:31.620Z,0.00
2023-04-15T00:20:31.609Z,0.00
2023-04-15T00:21:31.555Z,0.00
2023-04-15T00:22:31.553Z,0.00
2023-04-15T00:23:31.513Z,0.00
2023-04-15T00:24:31.514Z,0.00
2023-04-15T00:25:31.534Z,0.00
2023-04-15T00:26:31.597Z,0.00
2023-04-15T00:27:31.489Z,0.00
2023-04-15T00:28:31.449Z,0.00
2023-04-15T00:29:31.445Z,0.00
2023-04-15T00:30:31.511Z,0.00
2023-04-15T00:31:31.415Z,0.00
2023-04-15T00:32:31.439Z,0.00
2023-04-15T00:33:31.417Z,0.00
2023-04-15T00:34:31.404Z,0.00
2023-04-15T00:35:31.374Z,0.00
2023-04-15T00:36:31.352Z,0.00
2023-04-15T00:37:31.344Z,0.00
2023-04-15T00:38:31.349Z,0.00
2023-04-15T00:39:31.317Z,0.00
2023-04-15T00:40:31.306Z,0.00
2023-04-15T00:41:31.277Z,0.00
2023-04-15T00:42:31.300Z,0.00
2023-04-15T00:43:31.245Z,0.00
2023-04-15T00:44:31.266Z,0.00
2023-04-15T00:45:31.541Z,0.00
2023-04-15T00:46:31.221Z,0.00
2023-04-15T00:47:31.206Z,0.00
2023-04-15T00:48:31.210Z,0.00
2023-04-15T00:49:31.166Z,0.00
2023-04-15T00:50:31.191Z,0.00
2023-04-15T00:51:31.163Z,0.00
2023-04-15T00:52:31.233Z,0.00
2023-04-15T00:53:31.143Z,0.00
2023-04-15T00:54:31.110Z,0.00
2023-04-15T00:55:31.100Z,0.00
2023-04-15T00:56:31.165Z,0.00
2023-04-15T00:57:31.081Z,0.00
2023-04-15T00:58:31.074Z,0.00
2023-04-15T00:59:31.080Z,0.00
2023-04-15T01:00:31.058Z,0.00
2023-04-15T01:01:31.082Z,0.00
2023-04-15T01:02:31.098Z,0.00
2023-04-15T01:03:31.040Z,0.00
2023-04-15T01:04:31.055Z,0.00
2023-04-15T01:05:30.978Z,0.00
2023-04-15T01:06:31.050Z,0.00
2023-04-15T01:07:30.961Z,0.00
2023-04-15T01:08:30.920Z,0.00
2023-04-15T01:09:30.912Z,0.00
2023-04-15T01:10:30.903Z,0.00
2023-04-15T01:11:30.963Z,0.00
2023-04-15T01:12:30.870Z,0.00
2023-04-15T01:13:30.931Z,0.00
2023-04-15T01:14:30.854Z,0.00
2023-04-15T01:15:30.832Z,0.00
2023-04-15T01:16:30.936Z,0.00
2023-04-15T01:17:31.154Z,0.00
2023-04-15T01:18:30.803Z,0.00
2023-04-15T01:19:30.805Z,0.00
2023-04-15T01:20:30.764Z,0.00
2023-04-15T01:21:30.760Z,0.00
2023-04-15T01:22:30.761Z,0.00
2023-04-15T01:23:30.749Z,0.00
2023-04-15T01:24:30.747Z,0.00
2023-04-15T01:25:30.693Z,0.00
2023-04-15T01:26:30.776Z,0.00
2023-04-15T01:27:30.758Z,0.00
2023-04-15T01:28:30.696Z,0.00
2023-04-15T01:29:30.679Z,0.00
2023-04-15T01:30:30.644Z,0.00
2023-04-15T01:31:30.759Z,0.00
2023-04-15T01:32:30.749Z,0.00
2023-04-15T01:33:30.591Z,0.00
2023-04-15T01:34:30.594Z,0.00
2023-04-15T01:35:30.568Z,0.00
2023-04-15T01:36:30.588Z,0.00
2023-04-15T01:37:30.579Z,0.00
2023-04-15T01:38:30.688Z,0.00
2023-04-15T01:39:30.545Z,0.00
2023-04-15T01:40:30.501Z,0.00
2023-04-15T01:41:30.538Z,0.00
2023-04-15T01:42:30.490Z,0.00
2023-04-15T01:43:30.550Z,0.00
2023-04-15T01:44:30.470Z,0.00
2023-04-15T01:45:30.449Z,0.00
2023-04-15T01:46:30.451Z,0.00
2023-04-15T01:47:30.514Z,0.00
2023-04-15T01:48:30.459Z,0.00
2023-04-15T01:49:30.419Z,0.00
2023-04-15T01:50:30.401Z,0.00
2023-04-15T01:51:30.431Z,0.00
2023-04-15T01:52:30.389Z,0.00
2023-04-15T01:53:30.339Z,0.00
2023-04-15T01:54:30.406Z,0.00
2023-04-15T01:55:30.371Z,0.00
2023-04-15T01:56:30.286Z,0.00
2023-04-15T01:57:30.327Z,0.00
2023-04-15T01:58:30.333Z,0.00
2023-04-15T01:59:30.382Z,0.00
2023-04-15T02:00:30.239Z,0.00
2023-04-15T02:01:30.383Z,0.00
2023-04-15T02:02:30.268Z,0.00
2023-04-15T02:03:30.291Z,0.00
2023-04-15T02:04:30.216Z,0.00
2023-04-15T02:05:30.237Z,0.00
2023-04-15T02:06:30.181Z,0.00
2023-04-15T02:07:30.162Z,0.00
2023-04-15T02:08:30.146Z,0.00
2023-04-15T02:09:30.142Z,0.00
2023-04-15T02:10:30.202Z,0.00
2023-04-15T02:11:30.133Z,0.00
2023-04-15T02:12:30.087Z,0.00
2023-04-15T02:13:30.098Z,0.00
2023-04-15T02:14:30.060Z,0.00
2023-04-15T02:15:30.080Z,0.00
2023-04-15T02:16:30.099Z,0.00
2023-04-15T02:17:30.080Z,0.00
2023-04-15T02:18:30.017Z,0.00
2023-04-15T02:19:29.999Z,0.00
2023-04-15T02:20:30.077Z,0.00
2023-04-15T02:21:29.987Z,0.00
2023-04-15T02:22:29.968Z,0.00
2023-04-15T02:23:29.957Z,0.00
2023-04-15T02:24:29.928Z,0.00
2023-04-15T02:25:29.990Z,0.00
2023-04-15T02:26:29.951Z,0.00
2023-04-15T02:27:29.891Z,0.00
2023-04-15T02:28:29.900Z,0.00
2023-04-15T02:29:29.898Z,0.00
2023-04-15T02:30:29.875Z,0.00
2023-04-15T02:31:29.879Z,0.00
2023-04-15T02:32:29.876Z,0.00
2023-04-15T02:33:29.912Z,0.00
2023-04-15T02:34:29.807Z,0.00
2023-04-15T02:35:30.476Z,0.00
2023-04-15T02:36:30.117Z,0.00
2023-04-15T02:37:29.763Z,0.00
2023-04-15T02:38:29.754Z,0.00
2023-04-15T02:39:29.739Z,0.00
2023-04-15T02:40:29.736Z,0.00
2023-04-15T02:41:29.710Z,0.00
2023-04-15T02:42:29.698Z,0.00
2023-04-15T02:43:29.686Z,0.00
2023-04-15T02:44:29.654Z,0.00
2023-04-15T02:45:29.671Z,0.00
2023-04-15T02:46:29.680Z,0.00
2023-04-15T02:47:29.679Z,0.00
2023-04-15T02:48:29.620Z,0.00
2023-04-15T02:49:29.628Z,0.00
2023-04-15T02:50:30.010Z,0.00
2023-04-15T02:51:29.580Z,0.00
2023-04-15T02:52:29.586Z,0.00
2023-04-15T02:53:29.591Z,0.00
2023-04-15T02:54:29.582Z,0.00
2023-04-15T02:55:29.558Z,0.00
2023-04-15T02:56:29.524Z,0.00
2023-04-15T02:57:29.530Z,0.00
2023-04-15T02:58:29.491Z,0.00
2023-04-15T02:59:29.482Z,0.00
2023-04-15T03:00:29.462Z,0.00
2023-04-15T03:01:29.518Z,0.00
2023-04-15T03:02:29.506Z,0.00
2023-04-15T03:03:29.558Z,0.00
2023-04-15T03:04:29.476Z,0.00
2023-04-15T03:05:29.422Z,0.00
2023-04-15T03:06:29.406Z,0.00
2023-04-15T03:07:29.368Z,0.00
2023-04-15T03:08:29.365Z,0.00
2023-04-15T03:09:29.347Z,0.00
2023-04-15T03:10:29.365Z,0.00
2023-04-15T03:11:29.309Z,0.00
2023-04-15T03:12:29.291Z,0.00
2023-04-15T03:13:29.346Z,0.00
2023-04-15T03:14:29.283Z,0.00
2023-04-15T03:15:29.295Z,0.00
2023-04-15T03:16:29.229Z,0.00
2023-04-15T03:17:29.260Z,0.00
2023-04-15T03:18:29.258Z,0.00
2023-04-15T03:19:29.237Z,0.00
2023-04-15T03:20:29.261Z,0.00
2023-04-15T03:21:29.194Z,0.00
2023-04-15T03:22:29.176Z,0.00
2023-04-15T03:23:29.187Z,0.00
2023-04-15T03:24:29.165Z,0.00
2023-04-15T03:25:29.148Z,0.00
2023-04-15T03:26:29.146Z,0.00
2023-04-15T03:27:29.109Z,0.00
2023-04-15T03:28:29.091Z,0.00
2023-04-15T03:29:29.078Z,0.00
2023-04-15T03:30:29.111Z,0.00
2023-04-15T03:31:29.127Z,0.00
2023-04-15T03:32:29.088Z,0.00
2023-04-15T03:33:29.075Z,0.00
2023-04-15T03:34:29.014Z,0.00
2023-04-15T03:35:29.020Z,0.00
2023-04-15T03:36:29.005Z,0.00
2023-04-15T03:37:29.022Z,0.00
2023-04-15T03:38:28.983Z,0.00
2023-04-15T03:39:28.967Z,0.00
2023-04-15T03:40:29.041Z,0.00
2023-04-15T03:41:28.934Z,0.00
2023-04-15T03:42:28.920Z,0.00
2023-04-15T03:43:28.917Z,0.00
2023-04-15T03:44:28.906Z,0.00
2023-04-15T03:45:28.901Z,0.00
2023-04-15T03:46:28.887Z,0.00
2023-04-15T03:47:28.881Z,0.00
2023-04-15T03:48:28.826Z,0.00
2023-04-15T03:49:28.856Z,0.00
2023-04-15T03:50:28.806Z,0.00
2023-04-15T03:51:28.796Z,0.00
2023-04-15T03:52:28.771Z,0.00
2023-04-15T03:53:28.765Z,0.00
2023-04-15T03:54:28.749Z,0.00
2023-04-15T03:55:28.735Z,0.00
2023-04-15T03:56:28.731Z,0.00
2023-04-15T03:57:28.736Z,0.00
2023-04-15T03:58:28.720Z,0.00
2023-04-15T03:59:28.682Z,0.00
2023-04-15T04:00:28.675Z,0.00
2023-04-15T04:01:28.669Z,0.00
2023-04-15T04:02:28.789Z,0.00
2023-04-15T04:03:28.773Z,0.00
2023-04-15T04:04:28.704Z,0.00
2023-04-15T04:05:28.644Z,0.00
2023-04-15T04:06:28.605Z,0.00
2023-04-15T04:07:28.590Z,4.00
2023-04-15T04:08:28.660Z,4.00
2023-04-15T04:09:28.588Z,4.00
2023-04-15T04:10:28.532Z,0.00
2023-04-15T04:11:28.549Z,4.00
2023-04-15T04:12:28.522Z,4.00
2023-04-15T04:13:28.502Z,4.00
2023-04-15T04:14:28.611Z,4.00
2023-04-15T04:15:28.489Z,4.00
2023-04-15T04:16:28.559Z,4.00
2023-04-15T04:17:28.525Z,4.00
2023-04-15T04:18:28.425Z,8.00
2023-04-15T04:19:28.434Z,8.00
2023-04-15T04:20:28.489Z,8.00
2023-04-15T04:21:28.422Z,8.00
2023-04-15T04:22:28.387Z,12.00
2023-04-15T04:23:28.389Z,12.00
2023-04-15T04:24:28.422Z,12.00
2023-04-15T04:25:28.355Z,12.00
2023-04-15T04:26:28.343Z,12.00
2023-04-15T04:27:28.340Z,12.00
2023-04-15T04:28:28.324Z,12.00
2023-04-15T04:29:28.333Z,12.00
2023-04-15T04:30:28.365Z,12.00
2023-04-15T04:31:28.304Z,12.00
2023-04-15T04:32:28.264Z,12.00
2023-04-15T04:33:28.257Z,12.00
2023-04-15T04:34:28.250Z,12.00
2023-04-15T04:35:28.231Z,12.00
2023-04-15T04:36:28.284Z,12.00
2023-04-15T04:37:28.192Z,12.00
2023-04-15T04:38:28.214Z,12.00
2023-04-15T04:39:28.198Z,12.00
2023-04-15T04:40:28.163Z,12.00
2023-04-15T04:41:28.132Z,16.00
2023-04-15T04:42:28.135Z,12.00
2023-04-15T04:43:28.119Z,16.00
2023-04-15T04:44:28.154Z,16.00
2023-04-15T04:45:28.087Z,20.00
2023-04-15T04:46:28.070Z,16.00
2023-04-15T04:47:28.106Z,20.00
2023-04-15T04:48:28.036Z,20.00
2023-04-15T04:49:28.063Z,24.00
2023-04-15T04:50:28.068Z,24.00
2023-04-15T04:51:28.035Z,24.00
2023-04-15T04:52:28.038Z,28.00
2023-04-15T04:53:28.018Z,28.00
2023-04-15T04:54:27.981Z,32.00
2023-04-15T04:55:27.952Z,32.00
2023-04-15T04:56:27.939Z,32.00
2023-04-15T04:57:27.916Z,36.00
2023-04-15T04:58:27.933Z,36.00
2023-04-15T04:59:27.948Z,36.00
2023-04-15T05:00:27.933Z,44.00
2023-04-15T05:01:27.935Z,44.00
2023-04-15T05:02:28.128Z,48.00
2023-04-15T05:03:27.957Z,48.00
2023-04-15T05:04:27.846Z,52.00
2023-04-15T05:05:27.849Z,60.00
2023-04-15T05:06:27.800Z,64.00
2023-04-15T05:07:27.793Z,68.00
2023-04-15T05:08:27.783Z,68.00
2023-04-15T05:09:27.789Z,76.00
2023-04-15T05:10:27.745Z,80.00
2023-04-15T05:11:27.752Z,84.00
2023-04-15T05:12:27.734Z,92.00
2023-04-15T05:13:27.730Z,92.00
2023-04-15T05:14:27.714Z,100.00
2023-04-15T05:15:27.742Z,96.00
2023-04-15T05:16:27.681Z,104.00
2023-04-15T05:17:27.773Z,100.00
2023-04-15T05:18:27.667Z,100.00
2023-04-15T05:19:27.653Z,108.00
2023-04-15T05:20:27.631Z,108.00
2023-04-15T05:21:27.626Z,112.00
2023-04-15T05:22:27.605Z,116.00
2023-04-15T05:23:27.665Z,116.00
2023-04-15T05:24:27.566Z,104.00
2023-04-15T05:25:27.570Z,108.00
2023-04-15T05:26:27.612Z,104.00
2023-04-15T05:27:27.570Z,100.00
2023-04-15T05:28:27.541Z,88.00
2023-04-15T05:29:27.506Z,88.00
2023-04-15T05:30:27.529Z,84.00
2023-04-15T05:31:27.590Z,84.00
2023-04-15T05:32:27.516Z,80.00
2023-04-15T05:33:27.460Z,80.00
2023-04-15T05:34:27.439Z,84.00
2023-04-15T05:35:27.432Z,92.00
2023-04-15T05:36:27.427Z,96.00
2023-04-15T05:37:27.404Z,96.00
2023-04-15T05:38:27.418Z,92.00
2023-04-15T05:39:27.372Z,92.00
2023-04-15T05:40:27.365Z,88.00
2023-04-15T05:41:27.369Z,88.00
2023-04-15T05:42:27.339Z,88.00
2023-04-15T05:43:27.366Z,84.00
2023-04-15T05:44:27.316Z,84.00
2023-04-15T05:45:27.333Z,76.00
2023-04-15T05:46:27.313Z,80.00
2023-04-15T05:47:27.314Z,84.00
2023-04-15T05:48:27.271Z,84.00
2023-04-15T05:49:27.232Z,84.00
2023-04-15T05:50:27.230Z,88.00
2023-04-15T05:51:27.226Z,88.00
2023-04-15T05:52:27.255Z,88.00
2023-04-15T05:53:27.208Z,84.00
2023-04-15T05:54:27.203Z,84.00
2023-04-15T05:55:27.164Z,80.00
2023-04-15T05:56:27.164Z,84.00
2023-04-15T05:57:27.161Z,92.00
2023-04-15T05:58:27.141Z,96.00
2023-04-15T05:59:27.147Z,100.00
2023-04-15T06:00:27.123Z,108.00
2023-04-15T06:01:27.103Z,108.00
2023-04-15T06:02:27.203Z,112.00
2023-04-15T06:03:27.171Z,116.00
2023-04-15T06:04:27.163Z,112.00
2023-04-15T06:05:27.055Z,108.00
2023-04-15T06:06:27.030Z,116.00
2023-04-15T06:07:27.040Z,112.00
2023-04-15T06:08:27.005Z,112.00
2023-04-15T06:09:26.996Z,112.00
2023-04-15T06:10:26.963Z,104.00
2023-04-15T06:11:26.958Z,100.00
2023-04-15T06:12:26.964Z,96.00
2023-04-15T06:13:26.942Z,96.00
2023-04-15T06:14:27.595Z,92.00
2023-04-15T06:15:26.933Z,84.00
2023-04-15T06:16:26.926Z,80.00
2023-04-15T06:17:27.648Z,84.00
2023-04-15T06:18:26.877Z,88.00
2023-04-15T06:19:26.834Z,100.00
2023-04-15T06:20:26.855Z,108.00
2023-04-15T06:21:26.858Z,116.00
2023-04-15T06:22:26.875Z,124.00
2023-04-15T06:23:27.997Z,128.00
2023-04-15T06:24:26.801Z,128.00
2023-04-15T06:25:26.785Z,136.00
2023-04-15T06:26:26.776Z,132.00
2023-04-15T06:27:26.917Z,128.00
2023-04-15T06:28:27.024Z,124.00
2023-04-15T06:29:26.748Z,120.00
2023-04-15T06:30:26.738Z,128.00
2023-04-15T06:31:26.805Z,144.00
2023-04-15T06:32:26.739Z,156.00
2023-04-15T06:33:26.667Z,160.00
2023-04-15T06:34:26.775Z,172.00
2023-04-15T06:35:26.630Z,176.00
2023-04-15T06:36:26.650Z,168.00
2023-04-15T06:37:26.613Z,164.00
2023-04-15T06:38:26.623Z,176.00
2023-04-15T06:39:27.306Z,192.00
2023-04-15T06:40:26.567Z,192.00
2023-04-15T06:41:26.562Z,192.00
2023-04-15T06:42:26.548Z,192.00
2023-04-15T06:43:26.558Z,184.00
2023-04-15T06:44:26.513Z,180.00
2023-04-15T06:45:26.540Z,180.00
2023-04-15T06:46:26.842Z,164.00
2023-04-15T06:47:27.263Z,152.00
2023-04-15T06:48:26.533Z,128.00
2023-04-15T06:49:26.454Z,116.00
2023-04-15T06:50:26.503Z,116.00
2023-04-15T06:51:26.989Z,116.00
2023-04-15T06:52:26.438Z,116.00
2023-04-15T06:53:26.428Z,116.00
2023-04-15T06:54:26.396Z,108.00
2023-04-15T06:55:26.375Z,104.00
2023-04-15T06:56:26.381Z,104.00
2023-04-15T06:57:26.385Z,100.00
2023-04-15T06:58:26.356Z,108.00
2023-04-15T06:59:26.545Z,104.00
2023-04-15T07:00:26.332Z,104.00
2023-04-15T07:01:26.343Z,104.00
2023-04-15T07:02:26.361Z,108.00
2023-04-15T07:03:26.280Z,116.00
2023-04-15T07:04:26.276Z,120.00
2023-04-15T07:05:26.251Z,136.00
2023-04-15T07:06:26.376Z,152.00
2023-04-15T07:07:26.225Z,144.00
2023-04-15T07:08:26.212Z,144.00
2023-04-15T07:09:26.195Z,136.00
2023-04-15T07:10:26.202Z,132.00
2023-04-15T07:11:26.168Z,128.00
2023-04-15T07:12:26.161Z,124.00
2023-04-15T07:13:26.285Z,128.00
2023-04-15T07:14:26.122Z,144.00
2023-04-15T07:15:26.114Z,164.00
2023-04-15T07:16:27.845Z,192.00
2023-04-15T07:17:26.144Z,212.00
2023-04-15T07:18:26.112Z,264.00
2023-04-15T07:19:26.085Z,336.00
2023-04-15T07:20:26.130Z,460.00
2023-04-15T07:21:26.030Z,580.00
2023-04-15T07:22:26.030Z,616.00
2023-04-15T07:23:26.000Z,500.00
2023-04-15T07:24:25.992Z,384.00
2023-04-15T07:25:25.993Z,408.00
2023-04-15T07:26:26.015Z,400.00
2023-04-15T07:27:25.956Z,392.00
2023-04-15T07:28:25.997Z,424.00
2023-04-15T07:29:25.929Z,456.00
2023-04-15T07:30:25.970Z,452.00
2023-04-15T07:31:25.942Z,404.00
2023-04-15T07:32:25.990Z,368.00
2023-04-15T07:33:25.907Z,340.00
2023-04-15T07:34:25.878Z,308.00
2023-04-15T07:35:26.041Z,284.00
2023-04-15T07:36:25.852Z,248.00
2023-04-15T07:37:25.844Z,224.00
2023-04-15T07:38:25.823Z,204.00
2023-04-15T07:39:25.798Z,204.00
2023-04-15T07:40:25.810Z,208.00
2023-04-15T07:41:25.781Z,216.00
2023-04-15T07:42:25.767Z,216.00
2023-04-15T07:43:25.772Z,212.00
2023-04-15T07:44:25.756Z,220.00
2023-04-15T07:45:25.856Z,220.00
2023-04-15T07:46:25.801Z,216.00
2023-04-15T07:47:25.744Z,212.00
2023-04-15T07:48:25.696Z,208.00
2023-04-15T07:49:25.678Z,204.00
2023-04-15T07:50:25.665Z,200.00
2023-04-15T07:51:25.672Z,208.00
2023-04-15T07:52:25.705Z,224.00
2023-04-15T07:53:25.612Z,248.00
2023-04-15T07:54:25.611Z,264.00
2023-04-15T07:55:27.187Z,280.00
2023-04-15T07:56:25.588Z,288.00
2023-04-15T07:57:25.577Z,304.00
2023-04-15T07:58:25.555Z,304.00
2023-04-15T07:59:25.559Z,312.00
2023-04-15T08:00:25.533Z,324.00
2023-04-15T08:01:25.520Z,340.00
2023-04-15T08:02:25.681Z,336.00
2023-04-15T08:03:25.606Z,352.00
2023-04-15T08:04:25.798Z,384.00
2023-04-15T08:05:25.508Z,444.00
2023-04-15T08:06:25.448Z,520.00
2023-04-15T08:07:25.446Z,544.00
2023-04-15T08:08:25.449Z,524.00
2023-04-15T08:09:25.404Z,508.00
2023-04-15T08:10:25.414Z,496.00
2023-04-15T08:11:25.557Z,460.00
2023-04-15T08:12:25.378Z,472.00
2023-04-15T08:13:25.354Z,512.00
2023-04-15T08:14:25.348Z,536.00
2023-04-15T08:15:25.366Z,524.00
2023-04-15T08:16:26.517Z,520.00
2023-04-15T08:17:25.340Z,516.00
2023-04-15T08:18:25.311Z,528.00
2023-04-15T08:19:25.286Z,560.00
2023-04-15T08:20:25.317Z,568.00
2023-04-15T08:21:25.278Z,592.00
2023-04-15T08:22:25.232Z,644.00
2023-04-15T08:23:25.233Z,704.00
2023-04-15T08:24:25.215Z,736.00
2023-04-15T08:25:25.528Z,772.00
2023-04-15T08:26:25.267Z,800.00
2023-04-15T08:27:25.223Z,736.00
2023-04-15T08:28:25.976Z,664.00
2023-04-15T08:29:25.139Z,628.00
2023-04-15T08:30:25.803Z,636.00
2023-04-15T08:31:25.175Z,720.00
2023-04-15T08:32:25.155Z,752.00
2023-04-15T08:33:25.093Z,652.00
2023-04-15T08:34:25.073Z,572.00
2023-04-15T08:35:25.063Z,572.00
2023-04-15T08:36:25.054Z,624.00
2023-04-15T08:37:25.033Z,644.00
2023-04-15T08:38:25.028Z,652.00
2023-04-15T08:39:25.022Z,684.00
2023-04-15T08:40:25.003Z,728.00
2023-04-15T08:41:24.975Z,748.00
2023-04-15T08:42:24.973Z,724.00
2023-04-15T08:43:24.957Z,644.00
2023-04-15T08:44:24.976Z,564.00
2023-04-15T08:45:24.939Z,524.00
2023-04-15T08:46:24.945Z,500.00
2023-04-15T08:47:24.934Z,476.00
2023-04-15T08:48:24.895Z,500.00
2023-04-15T08:49:24.872Z,540.00
2023-04-15T08:50:24.889Z,564.00
2023-04-15T08:51:25.140Z,580.00
2023-04-15T08:52:24.844Z,604.00
2023-04-15T08:53:24.830Z,600.00
2023-04-15T08:54:24.814Z,588.00
2023-04-15T08:55:24.831Z,552.00
2023-04-15T08:56:24.833Z,520.00
2023-04-15T08:57:24.766Z,496.00
2023-04-15T08:58:24.768Z,484.00
2023-04-15T08:59:24.747Z,464.00
2023-04-15T09:00:24.753Z,452.00
2023-04-15T09:01:24.916Z,456.00
2023-04-15T09:02:24.878Z,468.00
2023-04-15T09:03:24.820Z,472.00
2023-04-15T09:04:24.697Z,500.00
2023-04-15T09:05:24.681Z,532.00
2023-04-15T09:06:24.653Z,556.00
2023-04-15T09:07:24.644Z,548.00
2023-04-15T09:08:24.706Z,508.00
2023-04-15T09:09:24.619Z,488.00
2023-04-15T09:10:24.622Z,460.00
2023-04-15T09:11:24.612Z,408.00
2023-04-15T09:12:24.627Z,388.00
2023-04-15T09:13:24.556Z,404.00
2023-04-15T09:14:24.633Z,416.00
2023-04-15T09:15:24.550Z,420.00
2023-04-15T09:16:24.622Z,444.00
2023-04-15T09:17:24.532Z,488.00
2023-04-15T09:18:24.495Z,512.00
2023-04-15T09:19:24.499Z,556.00
2023-04-15T09:20:24.506Z,604.00
2023-04-15T09:21:24.452Z,656.00
2023-04-15T09:22:24.452Z,704.00
2023-04-15T09:23:24.436Z,752.00
2023-04-15T09:24:24.424Z,800.00
2023-04-15T09:25:24.412Z,820.00
2023-04-15T09:26:24.387Z,820.00
2023-04-15T09:27:24.382Z,704.00
2023-04-15T09:28:24.378Z,588.00
2023-04-15T09:29:24.343Z,532.00
2023-04-15T09:30:24.353Z,536.00
2023-04-15T09:31:24.410Z,556.00
2023-04-15T09:32:24.363Z,584.00
2023-04-15T09:33:24.333Z,632.00
2023-04-15T09:34:24.299Z,648.00
2023-04-15T09:35:24.290Z,648.00
2023-04-15T09:36:24.246Z,628.00
2023-04-15T09:37:32.047Z,644.00
2023-04-15T09:38:25.230Z,668.00
2023-04-15T09:39:24.231Z,648.00
2023-04-15T09:40:24.217Z,616.00
2023-04-15T09:41:24.202Z,596.00
2023-04-15T09:42:24.249Z,584.00
2023-04-15T09:43:24.171Z,580.00
2023-04-15T09:44:24.145Z,592.00
2023-04-15T09:45:25.651Z,628.00
2023-04-15T09:46:24.188Z,664.00
2023-04-15T09:47:24.129Z,696.00
2023-04-15T09:48:24.100Z,708.00
2023-04-15T09:49:24.116Z,744.00
2023-04-15T09:50:24.108Z,780.00
2023-04-15T09:51:24.230Z,820.00
2023-04-15T09:52:24.145Z,856.00
2023-04-15T09:53:24.045Z,852.00
2023-04-15T09:54:24.014Z,864.00
2023-04-15T09:55:24.010Z,940.00
2023-04-15T09:56:24.002Z,980.00
2023-04-15T09:57:23.980Z,1040.00
2023-04-15T09:58:23.994Z,1072.00
2023-04-15T09:59:24.002Z,1116.00
2023-04-15T10:00:24.028Z,1168.00
2023-04-15T10:01:24.819Z,1228.00
2023-04-15T10:02:24.037Z,1292.00
2023-04-15T10:03:24.089Z,1300.00
2023-04-15T10:04:24.138Z,1216.00
2023-04-15T10:05:23.990Z,1144.00
2023-04-15T10:06:23.888Z,1148.00
2023-04-15T10:07:23.852Z,1148.00
2023-04-15T10:08:23.840Z,1100.00
2023-04-15T10:09:23.836Z,1008.00
2023-04-15T10:10:23.825Z,896.00
2023-04-15T10:11:23.804Z,812.00
2023-04-15T10:12:23.780Z,780.00
2023-04-15T10:13:23.777Z,788.00
2023-04-15T10:14:23.756Z,808.00
2023-04-15T10:15:23.754Z,788.00
2023-04-15T10:16:23.829Z,748.00
2023-04-15T10:17:23.783Z,704.00
2023-04-15T10:18:23.714Z,664.00
2023-04-15T10:19:23.719Z,616.00
2023-04-15T10:20:23.711Z,592.00
2023-04-15T10:21:23.688Z,592.00
2023-04-15T10:22:23.645Z,588.00
2023-04-15T10:23:23.644Z,572.00
2023-04-15T10:24:23.615Z,548.00
2023-04-15T10:25:23.623Z,512.00
2023-04-15T10:26:23.596Z,488.00
2023-04-15T10:27:23.586Z,476.00
2023-04-15T10:28:23.591Z,456.00
2023-04-15T10:29:23.601Z,444.00
2023-04-15T10:30:23.610Z,428.00
2023-04-15T10:31:23.587Z,416.00
2023-04-15T10:32:23.540Z,416.00
2023-04-15T10:33:23.516Z,424.00
2023-04-15T10:34:23.490Z,444.00
2023-04-15T10:35:23.486Z,464.00
2023-04-15T10:36:23.494Z,456.00
2023-04-15T10:37:23.467Z,448.00
2023-04-15T10:38:23.436Z,432.00
2023-04-15T10:39:23.455Z,408.00
2023-04-15T10:40:23.430Z,376.00
2023-04-15T10:41:23.403Z,348.00
2023-04-15T10:42:23.414Z,328.00
2023-04-15T10:43:23.380Z,320.00
2023-04-15T10:44:23.402Z,336.00
2023-04-15T10:45:23.385Z,364.00
2023-04-15T10:46:23.341Z,396.00
2023-04-15T10:47:23.427Z,432.00
2023-04-15T10:48:23.313Z,468.00
2023-04-15T10:49:23.298Z,488.00
2023-04-15T10:50:23.281Z,492.00
2023-04-15T10:51:23.327Z,488.00
2023-04-15T10:52:23.263Z,464.00
2023-04-15T10:53:23.242Z,440.00
2023-04-15T10:54:23.246Z,400.00
2023-04-15T10:55:23.238Z,368.00
2023-04-15T10:56:23.212Z,348.00
2023-04-15T10:57:23.216Z,340.00
2023-04-15T10:58:23.177Z,336.00
2023-04-15T10:59:23.177Z,332.00
2023-04-15T11:00:23.198Z,324.00
2023-04-15T11:01:23.186Z,304.00
2023-04-15T11:02:23.206Z,296.00
2023-04-15T11:03:23.303Z,288.00
2023-04-15T11:04:23.226Z,288.00
2023-04-15T11:05:23.124Z,292.00
2023-04-15T11:06:23.077Z,288.00
2023-04-15T11:07:23.061Z,280.00
2023-04-15T11:08:23.043Z,288.00
2023-04-15T11:09:23.042Z,304.00
2023-04-15T11:10:23.051Z,324.00
2023-04-15T11:11:23.024Z,352.00
2023-04-15T11:12:23.013Z,364.00
2023-04-15T11:13:22.973Z,372.00
2023-04-15T11:14:22.969Z,364.00
2023-04-15T11:15:22.979Z,356.00
2023-04-15T11:16:23.026Z,356.00
2023-04-15T11:17:23.001Z,388.00
2023-04-15T11:18:22.932Z,444.00
2023-04-15T11:19:22.909Z,536.00
2023-04-15T11:20:22.884Z,640.00
2023-04-15T11:21:22.877Z,712.00
2023-04-15T11:22:22.890Z,764.00
2023-04-15T11:23:22.854Z,820.00
2023-04-15T11:24:22.831Z,848.00
2023-04-15T11:25:22.842Z,828.00
2023-04-15T11:26:22.798Z,768.00
2023-04-15T11:27:22.819Z,700.00
2023-04-15T11:28:22.776Z,716.00
2023-04-15T11:29:22.764Z,812.00
2023-04-15T11:30:22.788Z,908.00
2023-04-15T11:31:22.780Z,992.00
2023-04-15T11:32:22.755Z,1024.00
2023-04-15T11:33:22.737Z,1024.00
2023-04-15T11:34:22.711Z,984.00
2023-04-15T11:35:22.706Z,872.00
2023-04-15T11:36:22.686Z,788.00
2023-04-15T11:37:22.675Z,760.00
2023-04-15T11:38:22.638Z,784.00
2023-04-15T11:39:22.650Z,860.00
2023-04-15T11:40:22.644Z,952.00
2023-04-15T11:41:22.619Z,1020.00
2023-04-15T11:42:22.608Z,1092.00
2023-04-15T11:43:22.577Z,1204.00
2023-04-15T11:44:22.568Z,1296.00
2023-04-15T11:45:22.619Z,1344.00
2023-04-15T11:46:22.569Z,1360.00
2023-04-15T11:47:22.544Z,1356.00
2023-04-15T11:48:22.520Z,1384.00
2023-04-15T11:49:22.520Z,1424.00
2023-04-15T11:50:22.521Z,1396.00
2023-04-15T11:51:22.509Z,1336.00
2023-04-15T11:52:22.470Z,1268.00
2023-04-15T11:53:22.461Z,1232.00
2023-04-15T11:54:22.451Z,1168.00
2023-04-15T11:55:22.453Z,1060.00
2023-04-15T11:56:22.402Z,912.00
2023-04-15T11:57:22.413Z,788.00
2023-04-15T11:58:22.403Z,704.00
2023-04-15T11:59:23.012Z,660.00
2023-04-15T12:00:22.374Z,608.00
2023-04-15T12:01:22.359Z,580.00
2023-04-15T12:02:22.439Z,564.00
2023-04-15T12:03:22.546Z,568.00
2023-04-15T12:04:25.141Z,592.00
2023-04-15T12:05:22.375Z,640.00
2023-04-15T12:06:22.278Z,680.00
2023-04-15T12:07:22.292Z,716.00
2023-04-15T12:08:22.248Z,752.00
2023-04-15T12:09:22.236Z,784.00
2023-04-15T12:10:22.278Z,800.00
2023-04-15T12:11:22.213Z,788.00
2023-04-15T12:12:22.205Z,768.00
2023-04-15T12:13:22.204Z,744.00
2023-04-15T12:14:22.387Z,708.00
2023-04-15T12:15:22.176Z,716.00
2023-04-15T12:16:22.178Z,708.00
2023-04-15T12:17:22.171Z,636.00
2023-04-15T12:18:22.117Z,528.00
2023-04-15T12:19:22.160Z,456.00
2023-04-15T12:20:22.099Z,444.00
2023-04-15T12:21:22.152Z,464.00
2023-04-15T12:22:22.062Z,484.00
2023-04-15T12:23:22.062Z,464.00
2023-04-15T12:24:22.057Z,440.00
2023-04-15T12:25:22.046Z,428.00
2023-04-15T12:26:22.003Z,432.00
2023-04-15T12:27:22.014Z,460.00
2023-04-15T12:28:21.993Z,508.00
2023-04-15T12:29:22.002Z,532.00
2023-04-15T12:30:21.982Z,576.00
2023-04-15T12:31:22.051Z,640.00
2023-04-15T12:32:21.961Z,756.00
2023-04-15T12:33:21.925Z,928.00
2023-04-15T12:34:21.914Z,1104.00
2023-04-15T12:35:21.923Z,1156.00
2023-04-15T12:36:21.889Z,1088.00
2023-04-15T12:37:21.880Z,1004.00
2023-04-15T12:38:21.860Z,976.00
2023-04-15T12:39:21.845Z,964.00
2023-04-15T12:40:21.853Z,948.00
2023-04-15T12:41:21.831Z,916.00
2023-04-15T12:42:21.843Z,884.00
2023-04-15T12:43:21.823Z,872.00
2023-04-15T12:44:21.779Z,876.00
2023-04-15T12:45:21.783Z,884.00
2023-04-15T12:46:22.084Z,904.00